sensor_id;sensor_type;location;lat;lon;timestamp;pressure;altitude;pressure_sealevel;temperature;humidity
38900;BME280;24660;43.238;26.576;2022-09-12T00:01:15;98842.94;;;17.65;100.00
38900;BME280;24660;43.238;26.576;2022-09-12T00:03:41;98851.94;;;17.80;100.00
38900;BME280;24660;43.238;26.576;2022-09-12T00:06:10;98837.47;;;17.73;100.00
38900;BME280;24660;43.238;26.576;2022-09-12T00:08:35;98845.63;;;17.65;100.00
38900;BME280;24660;43.238;26.576;2022-09-12T00:11:05;98841.03;;;17.74;100.00
38900;BME280;24660;43.238;26.576;2022-09-12T00:13:31;98844.31;;;17.24;100.00
38900;BME280;24660;43.238;26.576;2022-09-12T00:15:56;98847.09;;;17.53;100.00
38900;BME280;24660;43.238;26.576;2022-09-12T00:18:22;98848.03;;;17.23;100.00
38900;BME280;24660;43.238;26.576;2022-09-12T00:20:48;98844.34;;;17.38;100.00
38900;BME280;24660;43.238;26.576;2022-09-12T00:23:16;98849.44;;;17.56;100.00
38900;BME280;24660;43.238;26.576;2022-09-12T00:25:42;98838.91;;;17.24;100.00
38900;BME280;24660;43.238;26.576;2022-09-12T00:28:08;98840.44;;;17.03;100.00
38900;BME280;24660;43.238;26.576;2022-09-12T00:30:33;98841.56;;;17.09;100.00
38900;BME280;24660;43.238;26.576;2022-09-12T00:32:58;98844.88;;;17.19;100.00
38900;BME280;24660;43.238;26.576;2022-09-12T00:35:24;98864.53;;;17.28;100.00
38900;BME280;24660;43.238;26.576;2022-09-12T00:37:49;98850.59;;;17.16;100.00
38900;BME280;24660;43.238;26.576;2022-09-12T00:40:17;98849.44;;;17.18;100.00
38900;BME280;24660;43.238;26.576;2022-09-12T00:42:43;98858.53;;;17.40;100.00
38900;BME280;24660;43.238;26.576;2022-09-12T00:45:17;98842.91;;;17.50;100.00
38900;BME280;24660;43.238;26.576;2022-09-12T00:47:46;98850.38;;;17.63;100.00
38900;BME280;24660;43.238;26.576;2022-09-12T00:50:14;98856.44;;;17.65;100.00
38900;BME280;24660;43.238;26.576;2022-09-12T00:57:32;98848.28;;;17.36;100.00
38900;BME280;24660;43.238;26.576;2022-09-12T01:00:00;98840.75;;;17.46;100.00
38900;BME280;24660;43.238;26.576;2022-09-12T01:02:28;98838.38;;;17.66;100.00
38900;BME280;24660;43.238;26.576;2022-09-12T01:04:54;98839.25;;;17.58;100.00
38900;BME280;24660;43.238;26.576;2022-09-12T01:07:20;98839.50;;;17.71;100.00
38900;BME280;24660;43.238;26.576;2022-09-12T01:09:46;98835.25;;;17.54;100.00
38900;BME280;24660;43.238;26.576;2022-09-12T01:12:12;98835.78;;;17.72;100.00
38900;BME280;24660;43.238;26.576;2022-09-12T01:14:38;98839.00;;;17.68;100.00
38900;BME280;24660;43.238;26.576;2022-09-12T01:17:06;98830.69;;;17.77;100.00
38900;BME280;24660;43.238;26.576;2022-09-12T01:22:09;98841.31;;;17.94;100.00
38900;BME280;24660;43.238;26.576;2022-09-12T01:24:41;98843.31;;;17.62;100.00
38900;BME280;24660;43.238;26.576;2022-09-12T01:27:47;98839.13;;;17.60;100.00
38900;BME280;24660;43.238;26.576;2022-09-12T01:37:45;98854.50;;;17.13;100.00
38900;BME280;24660;43.238;26.576;2022-09-12T01:40:22;98838.13;;;17.15;100.00
38900;BME280;24660;43.238;26.576;2022-09-12T01:45:35;98841.97;;;17.20;100.00
38900;BME280;24660;43.238;26.576;2022-09-12T01:48:10;98834.53;;;17.23;100.00
38900;BME280;24660;43.238;26.576;2022-09-12T01:50:43;98829.25;;;17.06;100.00
38900;BME280;24660;43.238;26.576;2022-09-12T01:53:19;98823.66;;;16.85;100.00
38900;BME280;24660;43.238;26.576;2022-09-12T01:55:53;98825.16;;;17.33;100.00
38900;BME280;24660;43.238;26.576;2022-09-12T01:58:21;98819.22;;;17.15;100.00
38900;BME280;24660;43.238;26.576;2022-09-12T02:03:39;98814.31;;;16.96;100.00
38900;BME280;24660;43.238;26.576;2022-09-12T02:06:13;98808.50;;;17.07;100.00
38900;BME280;24660;43.238;26.576;2022-09-12T02:08:43;98808.97;;;17.10;100.00
38900;BME280;24660;43.238;26.576;2022-09-12T02:11:10;98800.94;;;17.40;100.00
38900;BME280;24660;43.238;26.576;2022-09-12T02:13:43;98809.94;;;17.17;100.00
38900;BME280;24660;43.238;26.576;2022-09-12T02:16:12;98800.31;;;17.15;100.00
38900;BME280;24660;43.238;26.576;2022-09-12T02:18:44;98793.56;;;16.96;100.00
38900;BME280;24660;43.238;26.576;2022-09-12T02:21:11;98794.16;;;17.06;100.00
38900;BME280;24660;43.238;26.576;2022-09-12T02:23:38;98779.50;;;17.38;100.00
38900;BME280;24660;43.238;26.576;2022-09-12T02:26:08;98772.88;;;17.26;100.00
38900;BME280;24660;43.238;26.576;2022-09-12T02:28:37;98782.22;;;17.38;100.00
38900;BME280;24660;43.238;26.576;2022-09-12T02:33:48;98796.78;;;17.52;100.00
38900;BME280;24660;43.238;26.576;2022-09-12T02:36:24;98797.88;;;17.58;100.00
38900;BME280;24660;43.238;26.576;2022-09-12T02:38:51;98793.69;;;17.40;100.00
38900;BME280;24660;43.238;26.576;2022-09-12T02:41:19;98797.88;;;17.05;100.00
38900;BME280;24660;43.238;26.576;2022-09-12T02:43:46;98793.41;;;17.35;100.00
38900;BME280;24660;43.238;26.576;2022-09-12T02:46:17;98802.97;;;16.77;100.00
38900;BME280;24660;43.238;26.576;2022-09-12T02:48:46;98796.50;;;17.09;100.00
38900;BME280;24660;43.238;26.576;2022-09-12T02:51:11;98797.94;;;16.97;100.00
38900;BME280;24660;43.238;26.576;2022-09-12T02:53:37;98793.00;;;17.24;100.00
38900;BME280;24660;43.238;26.576;2022-09-12T02:56:04;98787.34;;;17.33;100.00
38900;BME280;24660;43.238;26.576;2022-09-12T02:58:31;98788.81;;;16.98;100.00
38900;BME280;24660;43.238;26.576;2022-09-12T03:06:34;98802.59;;;17.26;100.00
38900;BME280;24660;43.238;26.576;2022-09-12T03:14:21;98785.13;;;17.14;100.00
38900;BME280;24660;43.238;26.576;2022-09-12T03:16:55;98794.69;;;17.39;100.00
38900;BME280;24660;43.238;26.576;2022-09-12T03:22:18;98793.50;;;17.04;100.00
38900;BME280;24660;43.238;26.576;2022-09-12T03:24:57;98789.00;;;17.19;100.00
38900;BME280;24660;43.238;26.576;2022-09-12T03:27:33;98797.00;;;17.28;100.00
38900;BME280;24660;43.238;26.576;2022-09-12T03:29:59;98800.88;;;17.10;100.00
38900;BME280;24660;43.238;26.576;2022-09-12T03:35:07;98809.47;;;17.66;100.00
38900;BME280;24660;43.238;26.576;2022-09-12T03:37:35;98802.28;;;17.59;100.00
38900;BME280;24660;43.238;26.576;2022-09-12T03:40:26;98795.91;;;17.37;100.00
38900;BME280;24660;43.238;26.576;2022-09-12T03:42:54;98809.66;;;17.27;100.00
38900;BME280;24660;43.238;26.576;2022-09-12T03:45:20;98805.00;;;17.21;100.00
38900;BME280;24660;43.238;26.576;2022-09-12T03:47:53;98814.00;;;17.36;100.00
38900;BME280;24660;43.238;26.576;2022-09-12T03:50:23;98811.56;;;17.41;100.00
38900;BME280;24660;43.238;26.576;2022-09-12T03:52:51;98801.34;;;17.51;99.50
38900;BME280;24660;43.238;26.576;2022-09-12T03:55:19;98818.91;;;17.33;100.00
38900;BME280;24660;43.238;26.576;2022-09-12T03:57:45;98814.03;;;17.28;100.00
38900;BME280;24660;43.238;26.576;2022-09-12T04:00:16;98818.19;;;17.39;99.23
38900;BME280;24660;43.238;26.576;2022-09-12T04:02:52;98823.72;;;17.45;97.62
38900;BME280;24660;43.238;26.576;2022-09-12T04:05:21;98835.66;;;17.28;98.67
38900;BME280;24660;43.238;26.576;2022-09-12T04:07:52;98835.69;;;17.43;98.62
38900;BME280;24660;43.238;26.576;2022-09-12T04:10:17;98821.53;;;17.41;96.44
38900;BME280;24660;43.238;26.576;2022-09-12T04:12:43;98817.88;;;16.65;100.00
38900;BME280;24660;43.238;26.576;2022-09-12T04:15:11;98819.47;;;16.51;100.00
38900;BME280;24660;43.238;26.576;2022-09-12T04:17:39;98815.34;;;16.63;100.00
38900;BME280;24660;43.238;26.576;2022-09-12T04:20:05;98823.22;;;16.42;100.00
38900;BME280;24660;43.238;26.576;2022-09-12T04:22:31;98830.72;;;16.63;100.00
38900;BME280;24660;43.238;26.576;2022-09-12T04:24:59;98836.84;;;16.49;100.00
38900;BME280;24660;43.238;26.576;2022-09-12T04:27:27;98835.59;;;16.68;100.00
38900;BME280;24660;43.238;26.576;2022-09-12T04:29:59;98830.03;;;16.61;100.00
38900;BME280;24660;43.238;26.576;2022-09-12T04:32:28;98840.63;;;16.31;100.00
38900;BME280;24660;43.238;26.576;2022-09-12T04:35:14;98839.50;;;16.18;100.00
38900;BME280;24660;43.238;26.576;2022-09-12T04:40:50;98840.25;;;16.43;100.00
38900;BME280;24660;43.238;26.576;2022-09-12T04:43:33;98852.66;;;16.13;100.00
